createdAt,value
2023-02-21T00:02:42.967Z,5.50
2023-02-21T00:05:28.801Z,4.00
2023-02-21T00:08:13.971Z,8.25
2023-02-21T00:10:59.724Z,6.25
2023-02-21T00:13:44.863Z,4.82
2023-02-21T00:16:36.237Z,4.55
2023-02-21T00:19:22.048Z,5.78
2023-02-21T00:22:07.700Z,5.20
2023-02-21T00:24:52.844Z,6.22
2023-02-21T00:27:38.366Z,3.03
2023-02-21T00:30:23.950Z,4.97
2023-02-21T00:33:09.711Z,5.18
2023-02-21T00:35:55.349Z,4.15
2023-02-21T00:38:40.487Z,4.82
2023-02-21T00:41:26.344Z,4.05
2023-02-21T00:44:11.711Z,5.00
2023-02-21T00:46:57.517Z,4.53
2023-02-21T00:49:43.154Z,4.00
2023-02-21T00:52:28.677Z,4.57
2023-02-21T00:55:13.958Z,3.55
2023-02-21T00:57:59.560Z,3.42
2023-02-21T01:00:45.173Z,2.60
2023-02-21T01:03:30.842Z,3.33
2023-02-21T01:06:16.285Z,3.13
2023-02-21T01:09:03.196Z,2.92
2023-02-21T01:11:49.060Z,3.60
2023-02-21T01:14:34.714Z,3.85
2023-02-21T01:17:20.513Z,4.07
2023-02-21T01:20:06.021Z,3.05
2023-02-21T01:22:51.586Z,2.28
2023-02-21T01:25:37.117Z,1.70
2023-02-21T01:28:22.657Z,1.45
2023-02-21T01:31:08.147Z,1.42
2023-02-21T01:33:59.783Z,2.00
2023-02-21T01:36:45.722Z,1.25
2023-02-21T01:39:31.617Z,4.18
2023-02-21T01:42:17.173Z,1.50
2023-02-21T01:45:04.093Z,1.45
2023-02-21T01:47:50.258Z,1.60
2023-02-21T01:50:41.372Z,1.88
2023-02-21T01:53:33.337Z,2.07
2023-02-21T01:59:05.735Z,2.72
2023-02-21T02:01:55.121Z,0.75
2023-02-21T02:04:42.200Z,1.73
2023-02-21T02:07:28.312Z,1.13
2023-02-21T02:10:13.913Z,3.05
2023-02-21T02:12:51.275Z,4.70
2023-02-21T02:15:18.257Z,2.67
2023-02-21T02:18:03.992Z,1.48
2023-02-21T02:20:46.425Z,1.70
2023-02-21T02:23:29.780Z,1.95
2023-02-21T02:25:56.572Z,2.17
2023-02-21T02:28:39.963Z,1.45
2023-02-21T02:31:12.819Z,1.58
2023-02-21T02:33:55.070Z,1.63
2023-02-21T02:36:25.231Z,1.65
2023-02-21T02:39:02.208Z,2.00
2023-02-21T02:41:29.169Z,1.50
2023-02-21T02:43:59.928Z,1.67
2023-02-21T02:46:34.973Z,1.50
2023-02-21T02:49:08.432Z,2.13
2023-02-21T02:51:35.524Z,3.80
2023-02-21T02:54:02.861Z,1.75
2023-02-21T02:56:30.475Z,2.70
2023-02-21T02:59:04.348Z,2.20
2023-02-21T03:01:51.410Z,2.83
2023-02-21T03:04:30.726Z,3.08
2023-02-21T03:07:16.291Z,2.00
2023-02-21T03:10:02.302Z,3.80
2023-02-21T03:12:29.039Z,1.88
2023-02-21T03:15:00.920Z,2.22
2023-02-21T03:17:29.108Z,2.20
2023-02-21T03:19:57.447Z,1.10
2023-02-21T03:22:26.605Z,1.33
2023-02-21T03:24:54.222Z,1.17
2023-02-21T03:27:22.372Z,1.83
2023-02-21T03:29:50.022Z,2.78
2023-02-21T03:32:46.410Z,0.98
2023-02-21T03:35:13.845Z,1.80
2023-02-21T03:37:45.516Z,2.03
2023-02-21T03:42:39.214Z,1.88
2023-02-21T03:45:06.615Z,2.20
2023-02-21T03:47:33.513Z,4.15
2023-02-21T03:50:00.528Z,2.63
2023-02-21T03:52:27.636Z,3.60
2023-02-21T03:54:54.512Z,4.35
2023-02-21T03:57:21.528Z,2.80
2023-02-21T03:59:48.479Z,5.45
2023-02-21T04:02:17.403Z,4.15
2023-02-21T04:04:45.022Z,3.70
2023-02-21T04:07:12.223Z,3.58
2023-02-21T04:09:39.269Z,3.78
2023-02-21T04:12:06.580Z,6.60
2023-02-21T04:14:35.843Z,4.68
2023-02-21T04:17:02.783Z,3.45
2023-02-21T04:19:29.613Z,4.90
2023-02-21T04:21:56.849Z,3.58
2023-02-21T04:24:24.370Z,3.15
2023-02-21T04:26:51.750Z,4.00
2023-02-21T04:29:18.893Z,4.05
2023-02-21T04:31:45.876Z,3.78
2023-02-21T04:34:12.834Z,5.38
2023-02-21T04:36:40.209Z,4.60
2023-02-21T04:39:07.490Z,3.88
2023-02-21T04:41:35.635Z,7.63
2023-02-21T04:44:02.522Z,10.40
2023-02-21T04:46:29.404Z,9.35
2023-02-21T04:48:56.186Z,9.18
2023-02-21T04:51:24.802Z,14.90
2023-02-21T04:53:52.522Z,6.30
2023-02-21T04:56:21.205Z,5.22
2023-02-21T04:58:48.488Z,5.20
2023-02-21T05:01:17.444Z,7.72
2023-02-21T05:03:44.945Z,6.70
2023-02-21T05:06:17.395Z,6.07
2023-02-21T05:08:44.559Z,7.15
2023-02-21T05:11:11.420Z,8.10
2023-02-21T05:13:38.566Z,10.90
2023-02-21T05:16:06.126Z,11.27
2023-02-21T05:18:34.882Z,10.75
2023-02-21T05:21:03.311Z,9.57
2023-02-21T05:23:36.989Z,6.72
2023-02-21T05:26:05.991Z,10.38
2023-02-21T05:28:33.323Z,16.98
2023-02-21T05:31:01.174Z,6.07
2023-02-21T05:33:28.562Z,10.70
2023-02-21T05:35:55.515Z,13.15
2023-02-21T05:38:23.107Z,14.48
2023-02-21T05:40:50.214Z,10.95
2023-02-21T05:43:17.501Z,13.82
2023-02-21T05:45:44.560Z,13.98
2023-02-21T05:48:11.572Z,14.60
2023-02-21T05:50:39.697Z,9.73
2023-02-21T05:53:07.083Z,12.85
2023-02-21T05:55:33.978Z,9.70
2023-02-21T05:58:00.784Z,9.57
2023-02-21T06:00:28.927Z,13.45
2023-02-21T06:02:56.016Z,14.63
2023-02-21T06:05:23.340Z,10.52
2023-02-21T06:07:50.225Z,10.30
2023-02-21T06:10:17.369Z,14.75
2023-02-21T06:12:44.296Z,10.82
2023-02-21T06:15:12.785Z,12.70
2023-02-21T06:17:40.509Z,16.13
2023-02-21T06:20:07.986Z,20.50
2023-02-21T06:22:37.807Z,19.92
2023-02-21T06:25:04.945Z,17.40
2023-02-21T06:27:31.983Z,23.65
2023-02-21T06:29:58.994Z,11.65
2023-02-21T06:32:25.981Z,24.77
2023-02-21T06:34:52.963Z,17.30
2023-02-21T06:37:23.080Z,31.63
2023-02-21T06:39:50.238Z,16.15
2023-02-21T06:42:17.878Z,16.80
2023-02-21T06:44:45.524Z,11.45
2023-02-21T06:47:12.617Z,12.07
2023-02-21T06:49:42.029Z,16.23
2023-02-21T06:52:09.801Z,33.67
2023-02-21T06:54:37.506Z,21.90
2023-02-21T06:57:05.674Z,13.85
2023-02-21T06:59:32.953Z,21.30
2023-02-21T07:01:59.985Z,20.25
2023-02-21T07:04:27.082Z,23.25
2023-02-21T07:06:53.964Z,29.48
2023-02-21T09:12:25.517Z,17.85
2023-02-21T09:14:52.305Z,20.75
2023-02-21T09:17:19.256Z,21.00
2023-02-21T09:19:46.059Z,25.73
2023-02-21T09:22:13.386Z,13.73
2023-02-21T09:24:41.611Z,20.52
2023-02-21T09:27:08.663Z,14.98
2023-02-21T09:29:46.433Z,18.50
2023-02-21T09:32:14.342Z,13.10
2023-02-21T09:34:41.684Z,13.52
2023-02-21T09:37:08.951Z,18.75
2023-02-21T09:39:37.982Z,19.73
2023-02-21T09:42:05.020Z,15.35
2023-02-21T09:44:32.103Z,13.77
2023-02-21T09:47:03.755Z,18.02
2023-02-21T09:49:33.369Z,18.42
2023-02-21T09:52:01.396Z,21.88
2023-02-21T09:54:28.343Z,18.45
2023-02-21T09:56:57.063Z,20.33
2023-02-21T09:59:26.144Z,17.50
2023-02-21T10:02:02.018Z,18.10
2023-02-21T10:04:41.173Z,14.02
2023-02-21T10:07:17.414Z,20.27
2023-02-21T10:09:47.866Z,18.80
2023-02-21T10:12:33.653Z,16.52
2023-02-21T10:15:13.122Z,17.80
2023-02-21T10:17:43.377Z,24.08
2023-02-21T10:20:14.191Z,15.48
2023-02-21T10:22:43.926Z,14.47
2023-02-21T10:25:25.488Z,25.42
2023-02-21T10:27:53.496Z,15.43
2023-02-21T10:30:32.435Z,28.20
2023-02-21T10:33:00.455Z,19.15
2023-02-21T10:35:27.325Z,16.33
2023-02-21T10:37:56.757Z,14.20
2023-02-21T10:40:29.708Z,17.45
2023-02-21T10:43:19.772Z,17.73
2023-02-21T10:46:05.116Z,20.73
2023-02-21T10:48:36.427Z,15.35
2023-02-21T10:51:08.833Z,21.65
2023-02-21T10:53:42.865Z,18.58
2023-02-21T10:56:16.825Z,13.50
2023-02-21T10:59:06.814Z,18.23
2023-02-21T11:01:41.841Z,16.15
2023-02-21T11:04:21.025Z,18.73
2023-02-21T11:06:55.897Z,19.77
2023-02-21T11:09:37.084Z,13.80
2023-02-21T11:12:05.746Z,16.17
2023-02-21T11:14:34.561Z,21.20
2023-02-21T11:17:19.614Z,18.10
2023-02-21T11:19:54.027Z,19.08
2023-02-21T11:22:25.103Z,24.52
2023-02-21T11:24:52.245Z,16.15
2023-02-21T11:27:19.674Z,17.17
2023-02-21T11:29:48.579Z,18.65
2023-02-21T11:32:24.782Z,13.20
2023-02-21T11:34:51.738Z,18.83
2023-02-21T11:37:19.642Z,14.38
2023-02-21T11:39:51.016Z,13.77
2023-02-21T11:42:25.736Z,16.05
2023-02-21T11:45:13.185Z,16.67
2023-02-21T11:47:45.472Z,17.30
2023-02-21T11:50:26.627Z,14.13
2023-02-21T11:53:06.225Z,18.85
2023-02-21T11:55:35.101Z,15.70
2023-02-21T11:58:20.897Z,17.02
2023-02-21T12:01:03.452Z,17.02
2023-02-21T12:03:30.582Z,22.13
2023-02-21T12:06:07.114Z,13.80
2023-02-21T12:08:35.235Z,18.10
2023-02-21T12:11:02.271Z,14.82
2023-02-21T12:13:41.393Z,19.33
2023-02-21T12:16:08.490Z,12.05
2023-02-21T12:18:50.558Z,17.42
2023-02-21T12:21:25.314Z,14.70
2023-02-21T12:24:04.466Z,14.10
2023-02-21T12:26:34.247Z,11.13
2023-02-21T12:29:21.494Z,12.85
2023-02-21T12:31:49.571Z,11.70
2023-02-21T12:34:25.755Z,15.20
2023-02-21T12:37:05.539Z,12.77
2023-02-21T12:39:40.388Z,10.52
2023-02-21T12:42:22.321Z,14.18
2023-02-21T12:45:16.712Z,10.75
2023-02-21T12:47:46.858Z,10.40
2023-02-21T12:50:18.318Z,10.90
2023-02-21T12:53:02.991Z,11.65
2023-02-21T12:55:40.289Z,14.13
2023-02-21T12:58:13.046Z,14.40
2023-02-21T13:00:58.903Z,9.55
2023-02-21T13:03:46.028Z,16.48
2023-02-21T13:06:20.359Z,13.70
2023-02-21T13:08:47.686Z,10.55
2023-02-21T13:11:18.910Z,10.77
2023-02-21T13:13:45.830Z,13.88
2023-02-21T13:16:13.576Z,11.80
2023-02-21T13:18:49.015Z,15.75
2023-02-21T13:21:17.870Z,17.50
2023-02-21T13:24:10.131Z,10.10
2023-02-21T13:26:52.860Z,12.82
2023-02-21T13:29:25.466Z,14.10
2023-02-21T13:32:00.414Z,20.10
2023-02-21T13:34:29.744Z,15.88
2023-02-21T13:37:01.305Z,12.82
2023-02-21T13:42:06.081Z,11.95
2023-02-21T13:44:41.965Z,13.30
2023-02-21T13:47:10.627Z,10.70
2023-02-21T13:49:37.462Z,13.55
2023-02-21T13:52:23.629Z,20.65
2023-02-21T13:55:09.005Z,12.20
2023-02-21T13:57:37.937Z,42.35
2023-02-21T14:00:24.300Z,12.20
2023-02-21T14:03:00.853Z,36.67
2023-02-21T14:05:53.924Z,17.15
2023-02-21T14:08:39.679Z,19.27
2023-02-21T14:11:07.075Z,7.07
2023-02-21T14:13:54.735Z,19.77
2023-02-21T14:16:49.833Z,21.88
2023-02-21T14:19:20.112Z,11.65
2023-02-21T14:21:48.704Z,16.25
2023-02-21T14:24:16.997Z,11.32
2023-02-21T14:26:46.064Z,20.02
2023-02-21T14:29:18.639Z,16.65
2023-02-21T14:31:56.206Z,10.77
2023-02-21T14:34:25.770Z,18.30
2023-02-21T14:36:54.678Z,7.88
2023-02-21T14:39:25.077Z,12.50
2023-02-21T14:42:19.194Z,12.10
2023-02-21T14:44:58.605Z,15.40
2023-02-21T14:47:51.192Z,15.05
2023-02-21T14:50:24.868Z,9.45
2023-02-21T14:52:57.847Z,12.60
2023-02-21T14:55:46.044Z,8.52
2023-02-21T15:01:33.724Z,9.27
2023-02-21T15:04:05.166Z,13.70
2023-02-21T15:06:43.199Z,9.27
2023-02-21T15:09:17.620Z,11.45
2023-02-21T15:11:57.084Z,10.95
2023-02-21T15:14:25.892Z,10.52
2023-02-21T15:17:00.865Z,10.27
2023-02-21T15:19:31.981Z,10.07
2023-02-21T15:22:20.358Z,10.15
2023-02-21T15:25:08.086Z,14.55
2023-02-21T15:27:43.863Z,7.03
2023-02-21T15:30:11.571Z,6.07
2023-02-21T15:32:41.574Z,6.63
2023-02-21T15:35:15.763Z,6.63
2023-02-21T15:37:56.445Z,11.32
2023-02-21T15:40:27.785Z,5.90
2023-02-21T15:42:57.369Z,7.18
2023-02-21T15:45:29.787Z,9.68
2023-02-21T15:48:01.248Z,9.10
2023-02-21T15:50:33.424Z,11.95
2023-02-21T15:53:36.282Z,17.65
2023-02-21T15:56:22.597Z,11.55
2023-02-21T15:59:28.685Z,5.78
2023-02-21T16:03:07.609Z,10.00
2023-02-21T16:05:51.540Z,6.97
2023-02-21T16:08:51.311Z,8.60
2023-02-21T16:14:14.767Z,9.88
2023-02-21T16:16:42.101Z,12.30
2023-02-21T16:19:12.819Z,6.30
2023-02-21T16:21:39.820Z,10.50
2023-02-21T16:24:26.481Z,8.82
2023-02-21T16:27:23.091Z,6.97
2023-02-21T16:29:53.102Z,9.23
2023-02-21T16:32:26.229Z,8.43
2023-02-21T16:34:57.124Z,7.80
2023-02-21T16:37:51.117Z,7.80
2023-02-21T16:40:26.770Z,7.47
2023-02-21T16:42:56.865Z,6.43
2023-02-21T16:45:26.622Z,9.27
2023-02-21T16:48:12.773Z,9.93
2023-02-21T16:50:45.251Z,10.45
2023-02-21T16:53:12.749Z,7.03
2023-02-21T16:55:49.001Z,8.63
2023-02-21T16:58:22.989Z,6.15
2023-02-21T17:00:57.416Z,10.50
2023-02-21T17:03:29.806Z,5.90
2023-02-21T17:05:57.884Z,9.07
2023-02-21T17:08:27.681Z,6.03
2023-02-21T17:10:55.684Z,5.50
2023-02-21T17:13:22.976Z,9.10
2023-02-21T17:15:50.040Z,4.03
2023-02-21T17:18:25.573Z,5.13
2023-02-21T17:20:55.838Z,9.38
2023-02-21T17:23:25.291Z,5.35
2023-02-21T17:25:52.237Z,10.18
2023-02-21T17:28:23.624Z,5.15
2023-02-21T17:30:50.930Z,6.95
2023-02-21T17:33:20.709Z,8.40
2023-02-21T17:36:03.293Z,6.45
2023-02-21T17:38:31.015Z,10.77
2023-02-21T17:40:59.302Z,8.07
2023-02-21T17:43:28.554Z,6.57
2023-02-21T17:46:01.198Z,8.27
2023-02-21T17:48:29.430Z,6.82
2023-02-21T17:54:12.629Z,3.33
2023-02-21T17:56:42.858Z,6.38
2023-02-21T17:59:12.307Z,10.05
2023-02-21T18:01:42.903Z,8.13
2023-02-21T18:04:26.968Z,6.57
2023-02-21T18:06:55.258Z,9.77
2023-02-21T18:09:24.224Z,11.13
2023-02-21T18:11:52.284Z,8.43
2023-02-21T18:14:20.398Z,7.95
2023-02-21T18:16:53.752Z,7.35
2023-02-21T18:19:24.356Z,7.70
2023-02-21T18:21:54.836Z,8.18
2023-02-21T18:24:23.278Z,10.93
2023-02-21T18:26:54.878Z,8.38
2023-02-21T18:29:22.301Z,8.13
2023-02-21T18:32:04.707Z,12.55
2023-02-21T18:34:36.569Z,7.18
2023-02-21T18:37:05.448Z,5.97
2023-02-21T18:39:36.335Z,8.93
2023-02-21T18:42:03.872Z,5.43
2023-02-21T18:44:31.297Z,10.80
2023-02-21T18:46:59.471Z,7.88
2023-02-21T18:49:33.655Z,9.30
2023-02-21T18:52:04.058Z,10.45
2023-02-21T18:54:30.906Z,5.53
2023-02-21T18:57:01.090Z,6.53
2023-02-21T18:59:27.955Z,9.80
2023-02-21T19:01:55.388Z,8.15
2023-02-21T19:04:23.042Z,12.35
2023-02-21T19:06:50.831Z,8.25
2023-02-21T19:09:18.033Z,7.63
2023-02-21T19:11:45.156Z,11.65
2023-02-21T19:14:16.778Z,10.48
2023-02-21T19:19:11.095Z,14.32
2023-02-21T19:21:38.462Z,10.05
2023-02-21T19:24:05.467Z,13.35
2023-02-21T19:26:33.124Z,12.98
2023-02-21T19:29:00.305Z,17.85
2023-02-21T19:31:27.391Z,20.23
2023-02-21T19:33:54.318Z,17.65
2023-02-21T19:36:24.130Z,23.10
2023-02-21T19:38:51.070Z,12.57
2023-02-21T19:41:19.077Z,14.90
2023-02-21T19:43:46.786Z,16.88
2023-02-21T19:46:26.147Z,20.60
2023-02-21T19:48:56.387Z,22.63
2023-02-21T19:51:26.527Z,17.10
2023-02-21T19:53:53.783Z,19.05
2023-02-21T19:56:21.246Z,16.67
2023-02-21T19:58:49.944Z,28.10
2023-02-21T20:01:17.432Z,18.00
2023-02-21T20:03:49.413Z,19.92
2023-02-21T20:06:19.683Z,22.95
2023-02-21T20:08:49.630Z,14.35
2023-02-21T20:11:20.027Z,19.05
2023-02-21T20:13:47.028Z,18.45
2023-02-21T20:16:19.904Z,21.60
2023-02-21T20:18:49.224Z,12.73
2023-02-21T20:21:23.096Z,25.80
2023-02-21T20:23:53.623Z,22.42
2023-02-21T20:26:23.535Z,26.60
2023-02-21T20:28:54.394Z,15.13
2023-02-21T20:31:28.276Z,13.77
2023-02-21T20:33:56.607Z,17.20
2023-02-21T20:36:33.762Z,16.23
2023-02-21T20:39:02.876Z,22.90
2023-02-21T20:41:34.129Z,22.73
2023-02-21T20:44:03.758Z,20.10
2023-02-21T20:46:30.878Z,16.98
2023-02-21T20:49:02.073Z,23.90
2023-02-21T20:51:29.722Z,19.23
2023-02-21T20:54:00.285Z,29.00
2023-02-21T20:56:34.737Z,41.03
2023-02-21T20:59:03.657Z,17.50
2023-02-21T21:01:30.778Z,30.45
2023-02-21T21:03:57.769Z,42.10
2023-02-21T21:06:26.277Z,20.67
2023-02-21T21:08:53.667Z,29.73
2023-02-21T21:11:21.919Z,22.15
2023-02-21T21:13:49.116Z,14.30
2023-02-21T21:16:15.872Z,20.10
2023-02-21T21:18:43.580Z,37.72
2023-02-21T21:21:10.843Z,27.13
2023-02-21T21:23:37.825Z,22.00
2023-02-21T21:26:08.733Z,31.48
2023-02-21T21:28:35.982Z,19.75
2023-02-21T21:31:04.096Z,17.27
2023-02-21T21:33:31.069Z,24.48
2023-02-21T21:36:00.979Z,22.85
2023-02-21T21:38:32.138Z,15.15
2023-02-21T21:40:59.585Z,22.17
2023-02-21T21:43:28.714Z,20.33
2023-02-21T21:45:55.748Z,18.10
2023-02-21T21:48:24.945Z,21.45
2023-02-21T21:50:52.096Z,13.73
2023-02-21T21:53:20.137Z,20.33
2023-02-21T21:55:47.194Z,17.33
2023-02-21T21:58:14.220Z,17.23
2023-02-21T22:00:43.804Z,22.55
2023-02-21T22:03:14.374Z,21.33
2023-02-21T22:05:44.803Z,20.42
2023-02-21T22:08:18.876Z,29.15
2023-02-21T22:10:46.018Z,19.65
2023-02-21T22:13:20.550Z,21.00
2023-02-21T22:15:48.463Z,20.15
2023-02-21T22:18:23.429Z,20.50
2023-02-21T22:20:50.497Z,22.23
2023-02-21T22:23:21.260Z,12.98
2023-02-21T22:25:48.607Z,28.57
2023-02-21T22:28:16.150Z,28.20
2023-02-21T22:30:42.966Z,20.13
2023-02-21T22:33:13.633Z,17.17
2023-02-21T22:35:40.956Z,17.50
2023-02-21T22:38:14.565Z,23.13
2023-02-21T22:40:42.128Z,21.33
2023-02-21T22:43:09.504Z,23.05
2023-02-21T22:45:37.158Z,18.38
2023-02-21T22:48:05.435Z,17.20
2023-02-21T22:50:37.012Z,20.90
2023-02-21T22:55:30.923Z,20.85
2023-02-21T22:57:59.321Z,19.08
2023-02-21T23:00:35.630Z,18.85
2023-02-21T23:03:12.840Z,23.88
2023-02-21T23:05:46.765Z,27.63
2023-02-21T23:08:15.063Z,14.57
2023-02-21T23:10:41.932Z,17.75
2023-02-21T23:13:10.810Z,23.25
2023-02-21T23:15:37.682Z,24.02
2023-02-21T23:18:04.998Z,19.70
2023-02-21T23:20:31.842Z,29.23
2023-02-21T23:22:59.061Z,18.98
2023-02-21T23:25:37.839Z,20.27
2023-02-21T23:28:06.532Z,15.32
2023-02-21T23:30:41.137Z,23.35
2023-02-21T23:33:09.463Z,15.98
2023-02-21T23:35:36.406Z,15.18
2023-02-21T23:38:03.666Z,17.38
2023-02-21T23:40:30.422Z,17.52
2023-02-21T23:42:57.228Z,15.10
2023-02-21T23:45:27.134Z,19.85
2023-02-21T23:47:55.532Z,25.10
2023-02-21T23:50:24.620Z,24.13
2023-02-21T23:52:53.018Z,22.15
2023-02-21T23:55:25.093Z,22.40
2023-02-21T23:57:52.906Z,18.55
